Aérodrome :
LOGIN :

S'inscrire | Disclaimer

   EN    FR    IT 

 










Légende :    VFR   VFR Marginal   IFR   IFR Intensif   IFR Très Intensif
Visi : 
Plafond : 
>= 8 km
>= 3000ft
5 à 8 km
1000 à 3000 ft
1500m à 5 km
500 à 1000 ft
800 à 1500m
200 à 500 ft
< 800m
< 200 ft
Symboles :   Orages  Brouillard  Fortes neiges  Fortes précipitations  Vent > 20 kt
SIGMETs :   Divers  Orages  Givrage  Turbulence  Onde Orograph.  Cendres Volcan.







- Altitude de l'aérodrome : 218 ft
- Code IATA : LBG
- Voir les cartes d'approche


LFPB - Paris / Le Bourget

DERNIER METAR :
  • 191500Z AUTO 32003KT 290V350 CAVOK 12/01 Q1029 NOSIG

METARs EXPIRÉS :
  • 191430Z AUTO VRB02KT CAVOK 12/00 Q1029 NOSIG
  • 191400Z AUTO VRB02KT CAVOK 12/01 Q1029 NOSIG
  • 191330Z AUTO VRB02KT CAVOK 12/01 Q1029 NOSIG
  • 191300Z AUTO VRB03KT CAVOK 12/02 Q1029 NOSIG
  • 191230Z AUTO 01003KT 320V050 9999 FEW039 SCT047 OVC054 11/02 Q1029 NOSIG

TAF TAF LFPB
Valide du 19 à 12h jusqu'au 20 à 12h UTC


191100Z 1912/2012 31005KT 9999 SCT025 TX12/1915Z TN04/2002Z
PROB30
TEMPO 2000/2006 3000 BR
ATIS : +33 1 48 62 43 92
Pas de NOTAMs connus pour ce terrain.



MET'MAP, la Météo Aéronautique d'un coup d'oeil ! - Copyright ORBIFLY Décembre 2007 - Disclaimer

ORBIFLY MET'MAP TEAM :

Programmation & Développement : Alexandra Zaïnal
Conception & Développement : Baudouin d'Aumeries
Co-Programmation & Développement : Marc-Olivier Méhu
Soutien technique & logistique : Manuel Goepfert

Contact : metmap@orbifly.com




SOURCES & CREDITS :

   NOAA